Time;durP1;ratioP1;P1;durP2;ratioP2;P2;SDS_P1;SDS_P2;PMS_P1;PMS_P2;Temp;Humidity;BMP_temperature;BMP_pressure;BME280_temperature;BME280_humidity;BME280_pressure;Samples;Min_cycle;Max_cycle;Signal;HPM_P1;HPM_P2
2021/12/21 00:00:53;;;;;;;9.80;4.87;;;0.50;91.20;;;0.81;66.15;98375.88;5029450;28;20041;-41
2021/12/21 00:03:21;;;;;;;12.03;5.70;;;0.50;91.30;;;0.83;65.72;98374.00;5028527;28;20057;-41
2021/12/21 00:05:49;;;;;;;14.27;4.97;;;0.50;91.00;;;0.83;65.87;98363.53;5029517;28;20450;-41
2021/12/21 00:08:17;;;;;;;12.47;7.00;;;0.50;91.00;;;0.82;65.66;98358.38;5027944;28;20053;-41
2021/12/21 00:11:05;;;;;;;9.43;5.40;;;0.50;91.00;;;0.81;66.05;98356.69;5028589;28;20049;-41
2021/12/21 00:16:13;;;;;;;12.33;6.13;;;0.50;91.10;;;0.82;66.35;98343.50;5028166;28;20213;-41
2021/12/21 00:19:06;;;;;;;12.87;5.17;;;0.50;91.00;;;0.84;66.01;98344.25;5028056;28;20070;-41
2021/12/21 00:21:38;;;;;;;11.87;5.93;;;0.50;90.70;;;0.85;65.91;98342.47;5027150;28;20076;-41
2021/12/21 00:24:12;;;;;;;13.20;5.90;;;0.50;90.60;;;0.84;66.13;98343.41;5028283;28;20051;-41
2021/12/21 00:26:40;;;;;;;;;;;0.50;90.20;;;0.78;65.29;98352.47;5026644;28;20061;-41
2021/12/21 00:29:08;;;;;;;9.27;5.53;;;0.40;89.00;;;0.74;66.01;98343.91;5028677;28;20664;-41
2021/12/21 00:31:37;;;;;;;10.47;6.43;;;0.40;90.30;;;0.75;65.65;98350.81;5027066;28;20053;-41
2021/12/21 00:34:07;;;;;;;12.07;7.03;;;0.40;90.50;;;0.76;65.90;98349.06;5027663;28;20063;-41
2021/12/21 00:36:38;;;;;;;15.27;7.90;;;0.40;90.50;;;0.73;65.97;98344.81;5027102;28;20061;-41
2021/12/21 00:39:12;;;;;;;14.10;6.38;;;0.30;90.10;;;0.69;65.42;98340.69;5028129;28;20051;-41
2021/12/21 00:41:40;;;;;;;13.27;7.03;;;0.30;90.40;;;0.68;65.67;98338.13;5028896;28;20369;-41
2021/12/21 00:44:08;;;;;;;12.90;6.70;;;0.30;90.20;;;0.67;65.75;98341.69;5027507;28;20061;-41
2021/12/21 00:46:38;;;;;;;11.10;6.17;;;0.30;90.30;;;0.62;65.61;98334.09;5027769;28;20053;-41
2021/12/21 00:49:14;;;;;;;14.43;6.60;;;0.20;90.50;;;0.62;65.51;98328.84;5028188;28;20435;-41
2021/12/21 00:51:46;;;;;;;13.43;5.43;;;0.30;90.40;;;0.58;65.74;98328.16;5027705;28;20247;-41
2021/12/21 00:54:16;;;;;;;10.53;5.30;;;0.20;90.20;;;0.55;65.81;98328.31;5028157;28;20343;-41
2021/12/21 00:56:44;;;;;;;11.37;5.47;;;0.20;89.90;;;0.51;65.46;98332.03;5027710;28;20533;-41
2021/12/21 00:59:11;;;;;;;9.50;5.30;;;0.10;90.20;;;0.45;64.94;98321.88;5027226;28;20059;-41
2021/12/21 01:01:43;;;;;;;14.00;6.13;;;0.00;89.80;;;0.41;65.13;98322.97;5027332;28;20079;-41
2021/12/21 01:04:23;;;;;;;10.13;5.60;;;0.00;90.30;;;0.42;65.81;98318.59;5026480;28;20060;-41
2021/12/21 01:10:11;;;;;;;11.60;6.23;;;0.00;90.40;;;0.42;65.46;98318.59;5028158;28;20060;-41
2021/12/21 01:12:47;;;;;;;10.23;5.63;;;0.10;90.40;;;0.42;65.81;98311.56;5026491;28;20049;-41
2021/12/21 01:18:09;;;;;;;11.47;6.20;;;0.10;90.40;;;0.42;65.69;98313.34;5025652;28;20087;-41
2021/12/21 01:20:40;;;;;;;9.57;5.10;;;0.00;90.00;;;0.42;65.79;98313.34;5026220;28;20060;-41
2021/12/21 01:31:00;;;;;;;16.77;5.93;;;0.00;90.50;;;0.32;65.96;98310.38;5027446;28;20062;-41
2021/12/21 01:36:07;;;;;;;11.82;5.82;;;-0.10;90.40;;;0.29;65.54;98307.91;5027022;28;20063;-41
2021/12/21 01:38:49;;;;;;;10.60;6.68;;;-0.10;90.50;;;0.28;65.20;98309.69;5027767;28;20067;-41
2021/12/21 01:49:42;;;;;;;13.67;6.27;;;-0.20;89.40;;;0.15;65.44;98308.63;5027000;28;20045;-41
2021/12/21 01:52:15;;;;;;;9.43;5.63;;;-0.30;89.50;;;0.12;65.96;98312.25;5026692;28;20053;-41
2021/12/21 01:54:44;;;;;;;9.43;5.27;;;-0.30;89.50;;;0.10;65.56;98313.28;5027029;28;20056;-41
2021/12/21 01:57:13;;;;;;;12.40;6.13;;;-0.30;89.60;;;0.08;65.27;98317.72;5025952;28;20051;-40
2021/12/21 01:59:43;;;;;;;11.53;6.33;;;-0.30;89.10;;;0.04;65.69;98313.56;5027432;28;20267;-42
2021/12/21 02:02:17;;;;;;;12.87;6.53;;;-0.30;88.90;;;0.00;65.14;98310.28;5026709;28;20040;-41
2021/12/21 02:04:46;;;;;;;12.77;6.13;;;-0.40;89.00;;;-0.02;65.31;98305.13;5025493;28;20056;-41
2021/12/21 02:07:14;;;;;;;9.40;6.13;;;-0.40;88.80;;;-0.02;64.88;98306.88;5027396;28;20671;-41
2021/12/21 02:09:42;;;;;;;11.33;6.57;;;-0.40;88.90;;;-0.06;65.39;98307.94;5026126;28;20251;-41
2021/12/21 02:12:17;;;;;;;9.90;6.60;;;-0.40;88.80;;;-0.08;65.66;98317.66;5030057;28;20052;-41
2021/12/21 02:14:53;;;;;;;12.30;6.47;;;-0.50;88.60;;;-0.08;65.81;98307.19;5030724;28;20054;-39
2021/12/21 02:22:50;;;;;;;11.13;6.17;;;-0.40;88.20;;;-0.06;65.69;98300.97;5029879;28;20263;-41
2021/12/21 02:30:49;;;;;;;9.17;6.47;;;-0.50;87.50;;;-0.13;65.25;98291.72;5030212;28;20041;-42
2021/12/21 02:33:17;;;;;;;14.53;5.97;;;-0.50;87.90;;;-0.11;65.04;98291.66;5029645;28;20053;-41
2021/12/21 02:35:45;;;;;;;12.30;4.73;;;-0.40;88.20;;;-0.11;65.07;98291.66;5028983;28;20041;-41
2021/12/21 02:38:13;;;;;;;7.13;4.73;;;-0.40;88.00;;;-0.10;65.57;98296.78;5028979;28;20041;-41
2021/12/21 02:40:41;;;;;;;12.23;5.93;;;-0.40;88.20;;;-0.10;65.43;98291.56;5029809;28;20041;-41
2021/12/21 02:43:10;;;;;;;12.37;4.97;;;-0.40;88.10;;;-0.11;65.38;98297.72;5028127;28;20332;-41
2021/12/21 02:45:41;;;;;;;9.47;5.50;;;-0.40;88.00;;;-0.11;65.09;98295.13;5030451;28;20057;-41
2021/12/21 02:48:09;;;;;;;10.23;5.83;;;-0.40;87.70;;;-0.14;64.56;98294.41;5030194;28;20046;-41
2021/12/21 02:50:39;;;;;;;10.77;5.00;;;-0.50;87.30;;;-0.17;65.40;98290.19;5029845;28;20053;-42
2021/12/21 02:53:08;;;;;;;13.17;5.83;;;-0.50;87.50;;;-0.20;65.50;98288.56;5046242;28;20425;-41
2021/12/21 02:55:37;;;;;;;9.07;4.43;;;-0.50;87.50;;;-0.18;64.97;98292.88;5030018;28;20260;-41
2021/12/21 02:58:06;;;;;;;9.40;4.83;;;-0.50;87.60;;;-0.23;65.08;98288.72;5029833;28;20053;-41
2021/12/21 03:00:35;;;;;;;10.77;5.17;;;-0.60;86.60;;;-0.29;65.22;98290.81;5029198;28;20053;-41
2021/12/21 03:03:10;;;;;;;12.27;5.80;;;-0.60;86.70;;;-0.35;64.81;98294.59;5027696;28;20053;-41
2021/12/21 03:05:40;;;;;;;6.67;4.57;;;-0.80;86.80;;;-0.39;65.25;98293.03;5029695;28;20110;-42
2021/12/21 03:08:17;;;;;;;14.30;5.43;;;-0.80;87.70;;;-0.43;64.87;98296.72;5029860;28;20053;-41
2021/12/21 03:11:01;;;;;;;10.93;4.57;;;-0.80;87.70;;;-0.48;64.90;98302.19;5030228;28;20369;-41
2021/12/21 03:16:17;;;;;;;7.63;4.97;;;-0.80;88.50;;;-0.49;64.92;98294.44;5029752;28;20248;-41
2021/12/21 03:18:45;;;;;;;12.07;5.20;;;-0.80;88.20;;;-0.47;64.70;98295.19;5008392;28;20060;-41
2021/12/21 03:21:13;;;;;;;8.97;5.23;;;-0.80;87.80;;;-0.50;65.34;98304.06;5009013;28;20084;-46
2021/12/21 03:23:41;;;;;;;9.87;4.80;;;-0.80;87.60;;;-0.51;65.38;98298.88;5009945;28;20068;-46
2021/12/21 03:26:09;;;;;;;10.37;5.37;;;-0.90;87.20;;;-0.52;65.09;98300.66;5009488;28;20271;-48
2021/12/21 03:28:37;;;;;;;12.87;5.33;;;-0.90;87.20;;;-0.52;64.75;98299.81;5008683;28;20072;-46
2021/12/21 03:31:06;;;;;;;6.87;5.00;;;-0.90;87.60;;;-0.53;64.85;98293.72;5007493;28;20064;-45
2021/12/21 03:33:34;;;;;;;11.07;4.60;;;-0.80;87.20;;;-0.52;65.19;98294.59;5009171;28;20251;-45
2021/12/21 03:36:04;;;;;;;7.30;4.70;;;-0.90;86.90;;;-0.53;64.70;98293.72;5010016;28;20054;-46
2021/12/21 03:38:34;;;;;;;14.80;5.60;;;-0.90;87.40;;;-0.53;65.26;98293.72;5006164;28;20050;-49
2021/12/21 03:41:06;;;;;;;9.73;4.63;;;-0.90;86.80;;;-0.53;65.08;98287.66;5010508;28;20067;-47
2021/12/21 03:43:35;;;;;;;12.13;4.73;;;-0.90;86.60;;;-0.53;64.81;98287.66;5008892;28;20370;-49
2021/12/21 03:46:09;;;;;;;8.50;5.20;;;-0.90;86.40;;;-0.53;64.37;98288.50;5008667;28;20053;-45
2021/12/21 03:48:44;;;;;;;8.05;4.38;;;-0.90;86.30;;;-0.54;64.23;98291.19;5009507;28;20063;-46
2021/12/21 03:51:15;;;;;;;10.53;5.40;;;-0.90;86.10;;;-0.56;64.72;98285.19;5009076;28;20054;-45
2021/12/21 03:53:45;;;;;;;11.90;4.57;;;-0.90;86.10;;;-0.58;64.31;98287.91;5008291;28;20054;-46
2021/12/21 03:59:00;;;;;;;8.20;4.70;;;-1.00;86.00;;;-0.63;65.02;98290.72;5009326;28;20053;-51
2021/12/21 04:01:28;;;;;;;11.67;5.13;;;-1.00;86.20;;;-0.65;64.15;98294.34;5010305;28;20060;-45
2021/12/21 04:03:56;;;;;;;13.60;7.23;;;-1.00;86.00;;;-0.69;64.83;98291.03;5009304;28;20072;-47
2021/12/21 04:06:24;;;;;;;16.77;8.40;;;-1.00;86.10;;;-0.72;64.11;98285.09;5008658;28;20064;-46
2021/12/21 04:08:52;;;;;;;15.47;8.27;;;-1.00;86.00;;;-0.71;64.93;98292.03;5008077;28;20053;-45
2021/12/21 04:11:20;;;;;;;13.77;7.00;;;-1.10;86.10;;;-0.73;64.73;98280.81;5008600;28;20060;-46
2021/12/21 04:13:48;;;;;;;10.47;6.23;;;-1.10;85.10;;;-0.75;64.61;98280.03;5007037;28;20052;-47
2021/12/21 04:16:16;;;;;;;15.83;7.40;;;-1.10;86.30;;;-0.75;64.90;98285.25;5008397;28;20367;-46
2021/12/21 04:18:44;;;;;;;15.97;8.23;;;-1.10;85.90;;;-0.80;64.01;98280.25;5008471;28;20046;-48
2021/12/21 04:21:13;;;;;;;10.23;6.57;;;-1.20;85.90;;;-0.82;64.02;98287.31;5007450;28;20046;-45
2021/12/21 04:23:42;;;;;;;13.23;6.43;;;-1.20;85.90;;;-0.85;64.93;98290.94;5006999;28;20057;-49
2021/12/21 04:26:13;;;;;;;14.83;6.60;;;-1.20;85.80;;;-0.87;64.34;98286.72;5007678;28;20216;-47
2021/12/21 04:28:42;;;;;;;10.67;5.93;;;-1.20;85.40;;;-0.89;64.31;98286.78;5008613;28;20549;-46
2021/12/21 04:31:11;;;;;;;13.43;5.23;;;-1.20;85.80;;;-0.93;63.98;98284.38;5009524;28;20069;-48
2021/12/21 04:33:45;;;;;;;11.27;5.80;;;-1.30;84.30;;;-0.94;64.04;98277.47;5006831;28;20060;-46
2021/12/21 04:36:14;;;;;;;11.90;6.03;;;-1.30;85.70;;;-0.94;64.41;98277.47;5007162;28;20421;-46
2021/12/21 04:38:46;;;;;;;7.43;4.60;;;-1.30;85.70;;;-0.92;64.79;98283.47;5007508;28;20052;-47
2021/12/21 04:41:22;;;;;;;9.60;4.53;;;-1.30;85.60;;;-0.91;64.24;98292.97;5008618;28;20052;-47
2021/12/21 04:43:51;;;;;;;13.67;4.70;;;-1.30;85.60;;;-0.92;64.26;98292.13;5007890;28;20054;-47
2021/12/21 04:46:20;;;;;;;8.87;5.30;;;-1.30;85.00;;;-1.01;64.70;98285.59;5007965;28;20064;-48
2021/12/21 04:48:49;;;;;;;8.27;5.00;;;-1.30;84.80;;;-1.01;64.06;98283.00;5006928;28;20056;-47
2021/12/21 04:51:18;;;;;;;11.33;5.70;;;-1.40;85.90;;;-0.98;64.93;98279.38;5009341;28;20072;-46
2021/12/21 04:53:46;;;;;;;12.90;6.93;;;-1.30;86.30;;;-0.94;64.93;98280.06;5006582;28;20064;-46
2021/12/21 04:56:14;;;;;;;12.17;6.80;;;-1.30;86.10;;;-0.96;64.65;98272.31;5008106;28;20052;-46
2021/12/21 04:58:41;;;;;;;14.30;7.10;;;-1.30;85.80;;;-0.96;64.44;98274.06;5007561;28;20057;-46
2021/12/21 05:01:09;;;;;;;13.17;6.90;;;-1.30;85.70;;;-0.97;64.37;98261.91;5009088;28;20045;-46
2021/12/21 05:03:37;;;;;;;13.13;7.80;;;-1.30;85.60;;;-1.00;64.83;98271.59;5005681;28;20060;-46
2021/12/21 05:06:05;;;;;;;11.60;6.63;;;-1.30;85.70;;;-0.99;64.59;98277.66;5008093;28;20075;-46
2021/12/21 05:08:37;;;;;;;9.30;5.80;;;-1.30;85.60;;;-1.01;64.74;98267.31;5007244;28;20056;-48
2021/12/21 05:11:06;;;;;;;10.80;5.43;;;-1.30;85.60;;;-0.97;64.91;98273.22;5008094;28;20049;-49
2021/12/21 05:13:38;;;;;;;14.63;6.10;;;-1.30;85.80;;;-0.96;64.49;98266.22;5007094;28;20083;-49
2021/12/21 05:16:06;;;;;;;9.97;5.87;;;-1.30;85.90;;;-0.94;64.32;98274.84;5007739;28;20045;-47
2021/12/21 05:18:35;;;;;;;11.17;6.40;;;-1.30;85.90;;;-0.98;64.20;98266.31;5008239;28;20062;-47
2021/12/21 05:21:04;;;;;;;14.13;6.90;;;-1.30;86.30;;;-0.97;64.26;98267.97;5007568;28;20344;-48
2021/12/21 05:23:32;;;;;;;16.47;6.63;;;-1.30;86.30;;;-0.98;64.21;98257.63;5006866;28;20056;-46
2021/12/21 05:26:00;;;;;;;14.40;6.67;;;-1.30;86.30;;;-1.00;64.18;98261.13;5006691;28;20073;-47
2021/12/21 05:28:28;;;;;;;17.03;8.53;;;-1.30;86.00;;;-1.01;64.29;98267.31;5007046;28;20058;-49
2021/12/21 05:30:56;;;;;;;16.77;8.27;;;-1.30;86.40;;;-1.01;65.07;98256.84;5007664;28;20054;-47
2021/12/21 05:33:26;;;;;;;14.17;7.03;;;-1.30;86.40;;;-1.01;64.93;98256.84;5007232;28;20340;-46
2021/12/21 05:35:56;;;;;;;12.30;6.73;;;-1.30;86.70;;;-1.00;64.48;98261.13;5006590;28;20050;-46
2021/12/21 05:38:30;;;;;;;13.87;7.80;;;-1.30;86.20;;;-0.99;65.05;98261.97;5006903;28;20050;-49
2021/12/21 05:41:02;;;;;;;8.90;6.03;;;-1.30;86.90;;;-0.99;64.50;98251.53;5006532;28;20049;-48
2021/12/21 05:43:30;;;;;;;15.90;8.10;;;-1.30;87.00;;;-0.96;64.66;98255.78;5007595;28;20050;-48
2021/12/21 05:45:58;;;;;;;14.53;7.30;;;-1.30;87.00;;;-0.99;64.49;98254.13;5007082;28;20248;-47
2021/12/21 05:48:27;;;;;;;14.93;8.13;;;-1.30;87.20;;;-0.99;65.07;98248.91;5006335;28;20076;-46
2021/12/21 05:50:55;;;;;;;14.27;7.03;;;-1.30;87.30;;;-1.01;64.17;98262.09;5007382;28;20265;-48
2021/12/21 05:53:23;;;;;;;13.50;6.93;;;-1.30;87.10;;;-1.03;65.26;98256.09;5005966;28;20076;-48
2021/12/21 05:55:50;;;;;;;12.30;6.87;;;-1.40;86.60;;;-1.05;64.29;98251.81;5007237;28;20041;-47
2021/12/21 05:58:18;;;;;;;12.63;6.00;;;-1.40;87.10;;;-1.10;64.89;98257.28;5005700;28;20057;-47
2021/12/21 06:00:46;;;;;;;7.73;5.47;;;-1.40;87.00;;;-1.14;64.45;98250.53;5005687;28;20058;-47
2021/12/21 06:03:14;;;;;;;9.07;5.27;;;-1.50;87.50;;;-1.15;64.62;98251.41;5006352;28;20054;-47
2021/12/21 06:05:43;;;;;;;8.10;5.03;;;-1.50;87.70;;;-1.17;64.71;98255.88;5007006;28;20058;-46
2021/12/21 06:08:11;;;;;;;10.33;5.00;;;-1.50;87.80;;;-1.15;64.73;98263.66;5006060;28;20052;-48
2021/12/21 06:10:41;;;;;;;11.30;5.67;;;-1.50;88.00;;;-1.15;65.26;98254.03;5006975;28;20046;-48
2021/12/21 06:26:44;;;;;;;8.90;5.40;;;-1.70;87.50;;;-1.31;65.19;98260.94;5006591;28;20056;-43
2021/12/21 06:29:12;;;;;;;11.80;5.67;;;-1.60;87.80;;;-1.30;64.94;98260.00;5006080;28;20054;-42
2021/12/21 06:31:41;;;;;;;45.20;18.80;;;-1.60;88.40;;;-1.28;64.94;98271.22;5007758;28;20072;-42
2021/12/21 06:34:09;;;;;;;80.90;27.83;;;-1.60;88.50;;;-1.24;65.56;98264.91;5006485;28;20054;-43
2021/12/21 06:36:37;;;;;;;24.53;13.57;;;-1.50;89.50;;;-1.20;65.28;98262.09;5006375;28;20048;-42
2021/12/21 06:39:06;;;;;;;38.27;15.67;;;-1.50;89.60;;;-1.16;64.86;98260.19;5007343;28;20045;-42
2021/12/21 06:41:36;;;;;;;32.60;16.70;;;-1.40;89.10;;;-1.12;65.11;98259.13;5006086;28;20056;-42
2021/12/21 06:44:05;;;;;;;34.13;17.60;;;-1.40;89.00;;;-1.11;64.95;98252.97;5006890;28;20481;-42
2021/12/21 06:47:08;;;;;;;19.30;10.83;;;-1.40;88.60;;;-1.13;64.79;98257.41;5005972;28;20046;-43
2021/12/21 06:52:23;;;;;;;11.20;6.73;;;-1.60;88.00;;;-1.27;65.36;98246.78;5006441;28;20046;-45
2021/12/21 06:54:51;;;;;;;11.90;6.90;;;-1.60;88.80;;;-1.29;64.81;98251.25;5005944;28;20057;-44
2021/12/21 06:57:19;;;;;;;11.30;7.17;;;-1.70;88.90;;;-1.32;65.22;98257.44;5007849;28;20058;-44
2021/12/21 06:59:47;;;;;;;14.30;7.67;;;-1.70;88.70;;;-1.34;64.86;98258.44;5010265;28;20398;-44
2021/12/21 07:02:15;;;;;;;19.37;9.67;;;-1.70;89.20;;;-1.31;65.48;98258.31;5010119;28;20212;-44
2021/12/21 07:04:43;;;;;;;19.67;10.63;;;-1.70;89.40;;;-1.27;65.72;98259.84;5009696;28;20052;-44
2021/12/21 07:07:12;;;;;;;15.00;9.13;;;-1.60;89.00;;;-1.26;65.26;98262.41;5009584;28;20263;-44
2021/12/21 07:09:43;;;;;;;12.33;7.20;;;-1.60;88.90;;;-1.24;64.88;98272.75;5010421;28;20445;-43
2021/12/21 07:20:14;;;;;;;10.50;5.77;;;-1.70;87.80;;;-1.42;64.97;98283.16;5007634;28;20054;-44
2021/12/21 07:22:42;;;;;;;12.63;5.83;;;-1.80;87.60;;;-1.43;64.88;98280.63;5009184;28;20236;-43
2021/12/21 07:25:10;;;;;;;12.93;6.23;;;-1.80;88.60;;;-1.44;64.94;98279.75;5008634;28;20049;-43
2021/12/21 07:27:38;;;;;;;11.30;6.20;;;-1.80;88.10;;;-1.45;65.44;98285.91;5009884;28;20076;-43
2021/12/21 07:30:08;;;;;;;14.73;6.33;;;-1.80;88.30;;;-1.44;64.96;98282.38;5010168;28;20050;-43
2021/12/21 07:32:36;;;;;;;10.33;6.07;;;-1.80;88.40;;;-1.47;65.37;98277.31;5009304;28;20064;-43
2021/12/21 07:35:06;;;;;;;14.50;6.53;;;-1.80;87.60;;;-1.48;65.21;98282.59;5009650;28;20059;-44
2021/12/21 07:37:35;;;;;;;10.27;6.23;;;-1.80;87.80;;;-1.49;64.96;98286.09;5037746;28;20040;-43
2021/12/21 07:40:05;;;;;;;8.93;5.70;;;-1.80;88.40;;;-1.49;65.63;98280.88;5041014;28;20082;-44
2021/12/21 07:42:34;;;;;;;16.83;9.17;;;-1.80;88.40;;;-1.50;64.84;98290.50;5039517;28;20352;-43
2021/12/21 07:45:05;;;;;;;16.50;8.70;;;-1.80;88.30;;;-1.51;64.96;98296.66;5040759;28;20037;-43
2021/12/21 07:47:33;;;;;;;16.43;9.83;;;-1.80;88.30;;;-1.52;65.10;98301.94;5041026;28;20084;-43
2021/12/21 07:50:03;;;;;;;19.27;9.23;;;-1.90;88.50;;;-1.52;65.45;98300.16;5039887;28;20061;-43
2021/12/21 07:52:31;;;;;;;13.00;7.97;;;-1.80;88.30;;;-1.51;65.44;98298.41;5040881;28;20049;-44
2021/12/21 07:55:00;;;;;;;16.83;9.33;;;-1.80;88.10;;;-1.48;64.99;98293.88;5040818;28;20367;-44
2021/12/21 07:57:28;;;;;;;10.13;7.00;;;-1.80;87.90;;;-1.49;65.32;98294.81;5038873;28;20116;-45
2021/12/21 07:59:57;;;;;;;10.47;6.63;;;-1.80;87.30;;;-1.49;64.74;98293.94;5040158;28;20053;-44
2021/12/21 08:02:27;;;;;;;9.70;6.67;;;-1.80;87.70;;;-1.48;65.00;98295.66;5039930;28;20053;-43
2021/12/21 08:04:55;;;;;;;9.80;7.13;;;-1.80;87.80;;;-1.44;65.47;98295.44;5040773;28;20042;-43
2021/12/21 08:07:30;;;;;;;14.33;7.40;;;-1.70;88.20;;;-1.40;65.12;98299.63;5040257;28;20068;-43
2021/12/21 08:10:06;;;;;;;12.97;7.33;;;-1.70;87.60;;;-1.40;65.08;98297.00;5038290;28;20073;-44
2021/12/21 08:12:34;;;;;;;11.03;7.17;;;-1.70;87.40;;;-1.37;65.44;98295.19;5013891;28;20046;-45
2021/12/21 08:15:02;;;;;;;11.50;6.53;;;-1.60;87.60;;;-1.33;65.56;98301.94;5009303;28;20053;-44
2021/12/21 08:17:30;;;;;;;14.37;7.37;;;-1.60;87.70;;;-1.30;65.47;98301.78;5009149;28;20053;-43
2021/12/21 08:19:58;;;;;;;10.50;5.97;;;-1.60;87.90;;;-1.29;64.91;98300.88;5007759;28;20042;-44
2021/12/21 08:22:27;;;;;;;9.17;5.97;;;-1.60;87.90;;;-1.27;65.39;98306.88;5008085;28;20060;-43
2021/12/21 08:24:55;;;;;;;13.07;6.43;;;-1.60;87.70;;;-1.23;64.84;98316.28;5007471;28;20092;-43
2021/12/21 08:27:22;;;;;;;11.67;7.53;;;-1.50;87.50;;;-1.20;64.84;98318.75;5008727;28;20344;-44
2021/12/21 08:29:50;;;;;;;18.20;7.93;;;-1.50;87.40;;;-1.17;65.05;98312.53;5008469;28;20058;-44
2021/12/21 08:32:19;;;;;;;12.20;6.83;;;-1.40;87.50;;;-1.15;65.69;98308.06;5007954;28;20054;-43
2021/12/21 08:35:01;;;;;;;11.67;6.33;;;-1.40;87.60;;;-1.11;65.15;98307.84;5063813;28;20474;-43
2021/12/21 08:37:29;;;;;;;16.40;6.93;;;-1.40;87.80;;;-1.07;65.68;98303.31;5044158;28;20049;-43
2021/12/21 08:39:57;;;;;;;17.27;7.53;;;-1.30;88.10;;;-1.03;65.12;98303.13;5043680;28;20213;-43
2021/12/21 08:42:26;;;;;;;14.83;6.20;;;-1.30;88.50;;;-0.99;64.96;98295.97;5043787;28;20047;-43
2021/12/21 08:44:54;;;;;;;12.63;7.10;;;-1.20;88.70;;;-0.96;65.28;98303.66;5044305;28;20063;-44
2021/12/21 08:47:22;;;;;;;10.07;6.50;;;-1.20;88.80;;;-0.91;65.46;98308.66;5059050;28;20631;-43
2021/12/21 08:49:50;;;;;;;11.83;6.10;;;-1.20;88.90;;;-0.90;65.28;98311.22;5042522;28;20063;-43
2021/12/21 08:52:18;;;;;;;12.80;6.73;;;-1.10;89.50;;;-0.87;65.69;98307.63;5042559;28;20044;-44
2021/12/21 08:54:46;;;;;;;12.93;6.53;;;-1.10;90.00;;;-0.85;65.84;98311.00;5042742;28;20057;-45
2021/12/21 08:57:14;;;;;;;11.07;6.27;;;-1.10;90.20;;;-0.82;65.68;98306.44;5044352;28;20774;-45
2021/12/21 08:59:42;;;;;;;13.10;6.50;;;-1.10;90.00;;;-0.81;66.04;98300.31;5045285;28;20474;-46
2021/12/21 09:02:10;;;;;;;11.00;6.53;;;-1.10;89.90;;;-0.78;66.09;98296.69;5046720;28;20055;-45
2021/12/21 09:04:40;;;;;;;10.33;5.80;;;-1.10;90.40;;;-0.74;65.30;98300.00;5053676;28;20055;-44
2021/12/21 09:07:08;;;;;;;12.53;5.30;;;-1.00;90.70;;;-0.74;65.88;98297.41;5050588;28;20059;-44
2021/12/21 09:09:36;;;;;;;9.47;6.13;;;-1.00;90.70;;;-0.72;65.35;98295.56;5055038;28;20051;-44
2021/12/21 09:12:04;;;;;;;10.07;7.30;;;-1.00;91.00;;;-0.70;65.75;98293.72;5050496;28;20087;-44
2021/12/21 09:14:32;;;;;;;12.57;6.53;;;-1.00;91.70;;;-0.67;66.26;98293.56;5046518;28;20307;-44
2021/12/21 09:17:02;;;;;;;10.63;6.27;;;-1.00;92.10;;;-0.65;65.90;98291.72;5048672;28;20053;-44
2021/12/21 09:19:30;;;;;;;9.77;7.17;;;-0.90;92.40;;;-0.63;65.78;98298.56;5054155;28;20055;-46
2021/12/21 09:22:00;;;;;;;10.60;6.63;;;-0.90;92.70;;;-0.59;66.43;98296.66;5055288;28;20041;-45
2021/12/21 09:24:29;;;;;;;9.27;6.10;;;-0.90;92.70;;;-0.56;66.84;98306.09;5062297;28;20055;-45
2021/12/21 09:26:57;;;;;;;9.30;6.63;;;-0.80;92.90;;;-0.53;65.94;98300.75;5061979;28;20054;-46
2021/12/21 09:29:25;;;;;;;11.60;6.60;;;-0.80;92.70;;;-0.50;66.32;98298.81;5062992;28;20070;-44
2021/12/21 09:31:52;;;;;;;11.33;6.63;;;-0.70;92.80;;;-0.45;66.66;98302.03;5063476;28;20052;-45
2021/12/21 09:34:20;;;;;;;11.37;6.10;;;-0.70;92.70;;;-0.43;66.45;98300.22;5061768;28;20377;-44
2021/12/21 09:36:48;;;;;;;10.97;6.57;;;-0.70;92.70;;;-0.42;66.37;98309.75;5063241;28;20216;-44
2021/12/21 09:39:16;;;;;;;14.50;6.83;;;-0.70;93.50;;;-0.39;66.74;98303.50;5062985;28;20048;-43
2021/12/21 09:41:45;;;;;;;10.60;6.30;;;-0.70;93.30;;;-0.37;66.07;98304.28;5062323;28;20667;-44
2021/12/21 09:44:12;;;;;;;12.10;6.40;;;-0.60;93.00;;;-0.34;66.45;98303.28;5062259;28;20066;-44
2021/12/21 09:46:40;;;;;;;12.17;6.83;;;-0.60;93.20;;;-0.31;66.79;98310.97;5047880;28;20140;-46
2021/12/21 09:49:08;;;;;;;13.10;6.13;;;-0.60;92.90;;;-0.31;65.95;98313.59;5048719;28;20056;-44
2021/12/21 09:51:36;;;;;;;8.83;5.70;;;-0.60;92.80;;;-0.28;66.47;98313.44;5048061;28;20079;-45
2021/12/21 09:54:04;;;;;;;9.87;6.03;;;-0.50;92.90;;;-0.24;66.86;98320.22;5047790;28;20347;-45
2021/12/21 09:56:32;;;;;;;12.27;6.30;;;-0.50;92.80;;;-0.21;66.58;98318.28;5049501;28;20055;-45
2021/12/21 09:59:02;;;;;;;11.23;6.47;;;-0.50;92.70;;;-0.20;65.85;98311.28;5047378;28;20251;-46
2021/12/21 10:01:30;;;;;;;12.50;6.67;;;-0.50;92.80;;;-0.18;66.55;98314.66;5049568;28;20045;-46
2021/12/21 10:03:58;;;;;;;12.37;7.43;;;-0.50;92.90;;;-0.16;66.92;98310.19;5049148;28;20057;-44
2021/12/21 10:06:26;;;;;;;11.97;6.40;;;-0.40;92.90;;;-0.12;66.89;98313.50;5048022;28;20055;-44
2021/12/21 10:09:06;;;;;;;11.97;6.60;;;-0.40;92.80;;;-0.10;66.75;98306.41;5047809;28;20071;-43
2021/12/21 10:11:53;;;;;;;7.17;5.47;;;-0.30;92.80;;;-0.06;66.07;98300.97;5049631;28;20049;-44
2021/12/21 10:14:25;;;;;;;11.50;6.83;;;-0.30;92.80;;;-0.02;66.47;98291.16;5048232;28;20063;-45
2021/12/21 10:17:10;;;;;;;9.73;6.90;;;-0.30;93.50;;;-0.01;66.37;98291.09;5048735;28;20049;-43
2021/12/21 10:19:46;;;;;;;;;;;-0.30;92.70;;;-0.01;65.99;98291.09;5041900;28;20365;-45
2021/12/21 10:22:17;;;;;;;10.53;5.67;;;-0.30;92.70;;;0.02;66.09;98284.00;5024505;28;19917;-45
2021/12/21 10:24:51;;;;;;;10.50;7.00;;;-0.30;92.80;;;0.06;66.64;98278.53;5028509;28;20054;-45
2021/12/21 10:27:23;;;;;;;11.17;6.30;;;-0.20;92.90;;;0.09;66.24;98280.97;5028292;28;20053;-44
2021/12/21 10:29:59;;;;;;;14.07;6.87;;;-0.20;92.50;;;0.11;66.38;98280.91;5029850;28;20231;-44
2021/12/21 10:32:32;;;;;;;12.27;7.17;;;-0.20;92.80;;;0.15;67.04;98293.75;5028425;28;20057;-44
2021/12/21 10:35:10;;;;;;;13.45;7.85;;;-0.10;93.10;;;0.17;66.59;98285.81;5027175;28;20043;-44
2021/12/21 10:37:40;;;;;;;13.93;7.17;;;-0.10;93.10;;;0.17;66.99;98280.56;5029330;28;20378;-46
2021/12/21 10:40:11;;;;;;;13.07;7.10;;;-0.10;92.90;;;0.19;66.85;98290.06;5026527;28;20057;-43
2021/12/21 10:43:00;;;;;;;11.93;7.17;;;-0.10;93.20;;;0.18;66.99;98282.28;5028204;28;20076;-45
2021/12/21 10:45:38;;;;;;;15.60;8.90;;;0.00;93.10;;;0.20;66.74;98272.56;5026850;28;20053;-44
2021/12/21 10:48:19;;;;;;;10.20;7.93;;;0.00;93.20;;;0.24;67.09;98270.66;5028251;28;20052;-43
2021/12/21 10:50:48;;;;;;;19.00;8.10;;;0.00;93.40;;;0.26;67.24;98269.63;5027367;28;20045;-45
2021/12/21 10:53:24;;;;;;;12.57;7.27;;;0.00;93.60;;;0.29;66.52;98260.75;5028351;28;20057;-45
2021/12/21 10:56:18;;;;;;;13.80;8.20;;;0.10;93.90;;;0.31;66.96;98261.50;5028263;28;20071;-45
2021/12/21 10:58:47;;;;;;;11.98;7.38;;;0.00;94.00;;;0.33;67.33;98252.66;5026817;28;20092;-43
2021/12/21 11:01:27;;;;;;;16.80;9.82;;;0.10;94.10;;;0.36;67.30;98249.84;5029557;28;20057;-41
2021/12/21 11:03:57;;;;;;;15.73;8.63;;;0.10;94.30;;;0.41;66.79;98259.25;5028660;28;20360;-44
2021/12/21 11:06:33;;;;;;;12.70;9.23;;;0.20;94.20;;;0.44;67.12;98249.44;5029214;28;20050;-43
2021/12/21 11:09:04;;;;;;;11.20;7.13;;;0.20;93.90;;;0.47;66.93;98246.66;5028129;28;20050;-43
2021/12/21 11:11:43;;;;;;;9.80;7.40;;;0.20;93.90;;;0.50;67.24;98243.03;5028069;28;20054;-43
2021/12/21 11:14:17;;;;;;;16.23;9.03;;;0.30;93.90;;;0.52;67.19;98242.00;5027625;28;20048;-42
2021/12/21 11:16:50;;;;;;;;;;;0.30;93.70;;;0.52;67.10;98246.41;5027646;28;20051;-42
2021/12/21 11:19:23;;;;;;;13.53;7.77;;;0.30;93.50;;;0.57;66.63;98249.63;5027677;28;20211;-43
2021/12/21 11:21:57;;;;;;;13.10;7.80;;;0.30;93.80;;;0.59;66.63;98242.53;5027747;28;20069;-43
2021/12/21 11:24:27;;;;;;;11.17;8.27;;;0.30;93.20;;;0.62;66.38;98234.53;5026287;28;20057;-43
2021/12/21 11:26:55;;;;;;;13.80;6.90;;;0.40;93.40;;;0.64;67.10;98242.28;5026014;28;20057;-43
2021/12/21 11:29:25;;;;;;;14.10;6.93;;;0.40;93.10;;;0.67;66.75;98240.34;5025833;28;20056;-43
2021/12/21 11:31:55;;;;;;;15.57;7.53;;;0.40;93.10;;;0.71;66.60;98239.22;5026218;28;20056;-43
2021/12/21 11:34:31;;;;;;;12.80;6.43;;;0.50;93.00;;;0.75;67.32;98245.97;5026050;28;20045;-43
2021/12/21 11:39:47;;;;;;;11.87;6.97;;;0.50;92.60;;;0.80;66.47;98237.06;5027665;28;20385;-43
2021/12/21 11:42:33;;;;;;;15.13;6.83;;;0.60;93.50;;;0.84;66.49;98228.06;5026998;28;20356;-43